Wetterdaten: Woche 28.08.06 - 03.09.06 (KW35)
Datum Zeit Temperatur Luftfeuchte Luftdruck Niederschlag Wind Richtung Sonnenschein UV-Strahlung Solar Taupunkt Windchill Windben
28.08.2006 00:00 13.9 C 94 % 1017.7 hPa 0.0 l/m 1.6 km/h (1 Bft) S-SO 0.00 h 0.0 UV-I 0 W/m 12.9 C 13.9 C 3.8 km/h (1 Bft)
28.08.2006 01:00 13.8 C 95 % 1017.4 hPa 0.0 l/m 1.7 km/h (1 Bft) S-SO 0.00 h 0.0 UV-I 0 W/m 13.0 C 13.8 C 3.9 km/h (1 Bft)
28.08.2006 02:00 13.8 C 96 % 1016.8 hPa 0.0 l/m 1.3 km/h (1 Bft) S-SO 0.00 h 0.0 UV-I 0 W/m 13.2 C 13.8 C 3.1 km/h (1 Bft)
28.08.2006 03:00 13.7 C 96 % 1016.6 hPa 0.0 l/m 2.6 km/h (1 Bft) S-SO 0.00 h 0.0 UV-I 0 W/m 13.1 C 13.7 C 5.0 km/h (1 Bft)
28.08.2006 04:00 13.3 C 96 % 1016.1 hPa 0.0 l/m 3.5 km/h (1 Bft) S-SO 0.00 h 0.0 UV-I 0 W/m 12.6 C 13.3 C 5.9 km/h (2 Bft)
28.08.2006 05:00 13.3 C 96 % 1015.4 hPa 0.0 l/m 1.6 km/h (1 Bft) S 0.00 h 0.0 UV-I 0 W/m 12.7 C 13.3 C 4.4 km/h (1 Bft)
28.08.2006 06:00 13.2 C 96 % 1015.0 hPa 0.0 l/m 1.8 km/h (1 Bft) S 0.00 h 0.0 UV-I 8 W/m 12.6 C 13.2 C 4.4 km/h (1 Bft)
28.08.2006 07:00 13.2 C 96 % 1015.0 hPa 0.0 l/m 1.4 km/h (1 Bft) S-SO 0.00 h 0.0 UV-I 38 W/m 12.5 C 13.2 C 3.7 km/h (1 Bft)
28.08.2006 08:00 13.7 C 95 % 1014.7 hPa 0.0 l/m 1.7 km/h (1 Bft) S-SO 0.00 h 0.6 UV-I 90 W/m 12.9 C 13.7 C 4.2 km/h (1 Bft)
28.08.2006 09:00 14.2 C 94 % 1014.5 hPa 0.0 l/m 1.2 km/h (1 Bft) S-SO 0.00 h 0.8 UV-I 104 W/m 13.2 C 14.2 C 3.3 km/h (1 Bft)
28.08.2006 10:00 15.0 C 90 % 1013.7 hPa 0.0 l/m 2.9 km/h (1 Bft) S 0.00 h 1.3 UV-I 156 W/m 13.4 C 15.0 C 6.9 km/h (2 Bft)
28.08.2006 11:00 15.3 C 91 % 1013.4 hPa 0.0 l/m 1.6 km/h (1 Bft) W 0.00 h 1.7 UV-I 184 W/m 13.8 C 15.3 C 4.2 km/h (1 Bft)
28.08.2006 12:00 15.7 C 87 % 1012.7 hPa 0.0 l/m 2.0 km/h (1 Bft) W 0.00 h 1.7 UV-I 157 W/m 13.5 C 15.7 C 4.1 km/h (1 Bft)
28.08.2006 13:00 15.7 C 84 % 1011.5 hPa 0.0 l/m 3.1 km/h (1 Bft) W-SW 0.00 h 1.7 UV-I 165 W/m 13.0 C 15.7 C 6.5 km/h (2 Bft)
28.08.2006 14:00 16.1 C 81 % 1010.8 hPa 0.0 l/m 3.3 km/h (1 Bft) S-SO 0.00 h 1.7 UV-I 166 W/m 12.9 C 16.1 C 7.2 km/h (2 Bft)
28.08.2006 15:00 15.1 C 85 % 1010.2 hPa 0.4 l/m 5.0 km/h (1 Bft) S 0.00 h 1.2 UV-I 121 W/m 12.6 C 15.1 C 10.4 km/h (2 Bft)
28.08.2006 16:00 14.4 C 93 % 1009.7 hPa 1.6 l/m 2.2 km/h (1 Bft) S-SO 0.00 h 0.9 UV-I 72 W/m 13.3 C 14.4 C 4.9 km/h (1 Bft)
28.08.2006 17:00 13.6 C 97 % 1009.5 hPa 2.6 l/m 1.2 km/h (1 Bft) S 0.00 h 0.6 UV-I 38 W/m 13.2 C 13.6 C 3.4 km/h (1 Bft)
28.08.2006 18:00 13.3 C 98 % 1009.1 hPa 2.6 l/m 2.7 km/h (1 Bft) S-SO 0.00 h 0.0 UV-I 19 W/m 13.0 C 13.3 C 5.7 km/h (1 Bft)
28.08.2006 19:00 13.3 C 99 % 1008.9 hPa 2.0 l/m 10.3 km/h (2 Bft) W 0.00 h 0.0 UV-I 8 W/m 13.1 C 13.3 C 15.2 km/h (3 Bft)
28.08.2006 20:00 13.4 C 98 % 1008.7 hPa 0.0 l/m 9.6 km/h (2 Bft) W-NW 0.00 h 0.0 UV-I 5 W/m 13.0 C 13.4 C 14.7 km/h (3 Bft)
28.08.2006 21:00 13.6 C 97 % 1009.2 hPa 0.2 l/m 7.7 km/h (2 Bft) W 0.00 h 0.0 UV-I 0 W/m 13.0 C 13.6 C 13.3 km/h (3 Bft)
28.08.2006 22:00 12.2 C 95 % 1010.5 hPa 5.2 l/m 9.3 km/h (2 Bft) W-NW 0.00 h 0.0 UV-I 0 W/m 11.5 C 12.2 C 14.8 km/h (3 Bft)
28.08.2006 23:00 11.5 C 96 % 1011.0 hPa 0.0 l/m 9.1 km/h (2 Bft) W-NW 0.00 h 0.0 UV-I 0 W/m 10.9 C 11.5 C 13.6 km/h (3 Bft)
29.08.2006 00:00 12.3 C 96 % 1011.5 hPa 0.0 l/m 10.2 km/h (2 Bft) W-NW 0.00 h 0.0 UV-I 0 W/m 11.7 C 12.3 C 16.1 km/h (3 Bft)
29.08.2006 01:00 12.6 C 94 % 1011.8 hPa 0.0 l/m 12.9 km/h (3 Bft) W-NW 0.00 h 0.0 UV-I 0 W/m 11.6 C 12.6 C 20.3 km/h (4 Bft)
29.08.2006 02:00 12.4 C 93 % 1012.5 hPa 0.0 l/m 7.6 km/h (2 Bft) W 0.00 h 0.0 UV-I 0 W/m 11.3 C 12.4 C 12.7 km/h (3 Bft)
29.08.2006 03:00 12.1 C 93 % 1013.1 hPa 0.0 l/m 3.2 km/h (1 Bft) W 0.00 h 0.0 UV-I 0 W/m 11.1 C 12.1 C 6.7 km/h (2 Bft)
29.08.2006 04:00 12.1 C 92 % 1013.4 hPa 0.0 l/m 8.9 km/h (2 Bft) W-NW 0.00 h 0.0 UV-I 0 W/m 10.8 C 12.1 C 13.4 km/h (3 Bft)
29.08.2006 05:00 11.9 C 91 % 1013.4 hPa 0.0 l/m 6.9 km/h (2 Bft) W-NW 0.00 h 0.0 UV-I 0 W/m 10.5 C 11.9 C 10.3 km/h (2 Bft)
29.08.2006 06:00 10.6 C 95 % 1013.6 hPa 0.0 l/m 2.6 km/h (1 Bft) SO 0.00 h 0.0 UV-I 6 W/m 9.9 C 10.6 C 4.6 km/h (1 Bft)
29.08.2006 07:00 10.7 C 94 % 1013.9 hPa 0.0 l/m 3.7 km/h (1 Bft) SO 0.00 h 0.0 UV-I 32 W/m 9.8 C 10.7 C 5.9 km/h (2 Bft)
29.08.2006 08:00 11.2 C 94 % 1014.0 hPa 0.0 l/m 1.8 km/h (1 Bft) S-SO 0.00 h 0.5 UV-I 59 W/m 10.3 C 11.2 C 3.6 km/h (1 Bft)
29.08.2006 09:00 11.9 C 92 % 1013.7 hPa 0.0 l/m 2.3 km/h (1 Bft) S-SO 0.00 h 0.9 UV-I 140 W/m 10.7 C 11.9 C 5.0 km/h (1 Bft)
29.08.2006 10:00 13.1 C 87 % 1013.5 hPa 0.0 l/m 2.6 km/h (1 Bft) W-NW 0.00 h 1.5 UV-I 226 W/m 11.0 C 13.1 C 5.3 km/h (1 Bft)
29.08.2006 11:00 13.9 C 81 % 1013.0 hPa 0.0 l/m 7.6 km/h (2 Bft) W-NW 0.03 h 2.1 UV-I 257 W/m 10.7 C 13.9 C 11.6 km/h (2 Bft)
29.08.2006 12:00 15.0 C 77 % 1012.4 hPa 0.0 l/m 10.5 km/h (2 Bft) W-NW 0.48 h 3.2 UV-I 366 W/m 11.0 C 15.0 C 16.6 km/h (3 Bft)
29.08.2006 13:00 14.1 C 77 % 1011.8 hPa 1.4 l/m 11.7 km/h (2 Bft) W-NW 0.00 h 2.8 UV-I 248 W/m 10.1 C 14.1 C 17.7 km/h (3 Bft)
29.08.2006 14:00 11.0 C 95 % 1012.3 hPa 0.8 l/m 4.6 km/h (1 Bft) W-NW 0.00 h 1.4 UV-I 145 W/m 10.3 C 11.0 C 7.6 km/h (2 Bft)
29.08.2006 15:00 11.9 C 94 % 1011.5 hPa 0.0 l/m 10.5 km/h (2 Bft) W-NW 0.00 h 1.3 UV-I 154 W/m 11.0 C 11.9 C 16.3 km/h (3 Bft)
29.08.2006 16:00 11.5 C 93 % 1011.4 hPa 0.2 l/m 9.0 km/h (2 Bft) W-NW 0.00 h 0.7 UV-I 71 W/m 10.4 C 11.5 C 13.8 km/h (3 Bft)
29.08.2006 17:00 11.0 C 95 % 1011.3 hPa 0.6 l/m 4.4 km/h (1 Bft) W 0.00 h 0.5 UV-I 57 W/m 10.3 C 11.0 C 7.2 km/h (2 Bft)
29.08.2006 18:00 10.6 C 96 % 1011.0 hPa 0.6 l/m 0.5 km/h (0 Bft) S-SO 0.00 h 0.0 UV-I 24 W/m 9.9 C 10.6 C 1.9 km/h (1 Bft)
29.08.2006 19:00 10.5 C 97 % 1011.0 hPa 1.0 l/m 0.5 km/h (0 Bft) S-SO 0.00 h 0.0 UV-I 9 W/m 10.1 C 10.5 C 1.8 km/h (1 Bft)
29.08.2006 20:00 10.3 C 99 % 1011.0 hPa 0.2 l/m 0.6 km/h (0 Bft) S 0.00 h 0.0 UV-I 0 W/m 10.1 C 10.3 C 2.0 km/h (1 Bft)
29.08.2006 21:00 10.0 C 99 % 1011.4 hPa 0.2 l/m 2.0 km/h (1 Bft) W-SW 0.00 h 0.0 UV-I 0 W/m 9.8 C 9.9 C 4.5 km/h (1 Bft)
29.08.2006 22:00 9.8 C 99 % 1011.9 hPa 0.2 l/m 4.2 km/h (1 Bft) W 0.00 h 0.0 UV-I 0 W/m 9.6 C 9.5 C 7.4 km/h (2 Bft)
29.08.2006 23:00 9.9 C 97 % 1012.6 hPa 0.0 l/m 8.0 km/h (2 Bft) W 0.00 h 0.0 UV-I 0 W/m 9.5 C 8.9 C 13.0 km/h (3 Bft)
30.08.2006 00:00 9.8 C 97 % 1013.2 hPa 0.0 l/m 10.0 km/h (2 Bft) W 0.00 h 0.0 UV-I 0 W/m 9.3 C 8.4 C 16.3 km/h (3 Bft)
30.08.2006 01:00 10.0 C 96 % 1014.0 hPa 0.0 l/m 10.1 km/h (2 Bft) W 0.00 h 0.0 UV-I 0 W/m 9.4 C 8.6 C 16.3 km/h (3 Bft)
30.08.2006 02:00 10.1 C 95 % 1014.7 hPa 0.0 l/m 10.7 km/h (2 Bft) W 0.00 h 0.0 UV-I 0 W/m 9.3 C 9.5 C 17.0 km/h (3 Bft)
30.08.2006 03:00 10.1 C 94 % 1014.9 hPa 0.2 l/m 6.7 km/h (2 Bft) W 0.00 h 0.0 UV-I 0 W/m 9.2 C 9.7 C 10.6 km/h (2 Bft)
30.08.2006 04:00 10.2 C 93 % 1015.5 hPa 0.2 l/m 5.4 km/h (1 Bft) W-NW 0.00 h 0.0 UV-I 0 W/m 9.1 C 10.2 C 9.0 km/h (2 Bft)
30.08.2006 05:00 10.0 C 96 % 1016.1 hPa 0.2 l/m 3.8 km/h (1 Bft) W-SW 0.00 h 0.0 UV-I 0 W/m 9.4 C 9.6 C 7.0 km/h (2 Bft)
30.08.2006 06:00 10.0 C 96 % 1016.7 hPa 0.0 l/m 9.2 km/h (2 Bft) W 0.00 h 0.0 UV-I 7 W/m 9.5 C 9.0 C 15.0 km/h (3 Bft)
30.08.2006 07:00 10.3 C 94 % 1017.7 hPa 0.0 l/m 8.7 km/h (2 Bft) W-NW 0.00 h 0.0 UV-I 43 W/m 9.4 C 10.3 C 13.8 km/h (3 Bft)
30.08.2006 08:00 10.5 C 92 % 1018.8 hPa 0.0 l/m 6.8 km/h (2 Bft) W-NW 0.00 h 0.5 UV-I 63 W/m 9.3 C 10.5 C 11.5 km/h (2 Bft)
30.08.2006 09:00 11.1 C 91 % 1019.7 hPa 0.0 l/m 2.4 km/h (1 Bft) W-NW 0.00 h 0.8 UV-I 122 W/m 9.7 C 11.1 C 4.9 km/h (1 Bft)
30.08.2006 10:00 11.8 C 87 % 1020.6 hPa 0.0 l/m 4.1 km/h (1 Bft) W-NW 0.00 h 1.1 UV-I 141 W/m 9.7 C 11.8 C 6.8 km/h (2 Bft)
30.08.2006 11:00 13.1 C 79 % 1021.1 hPa 0.0 l/m 9.0 km/h (2 Bft) W-NW 0.45 h 3.0 UV-I 425 W/m 9.5 C 13.1 C 14.6 km/h (3 Bft)
30.08.2006 12:00 14.0 C 76 % 1021.1 hPa 0.0 l/m 13.9 km/h (3 Bft) W-NW 0.62 h 4.8 UV-I 564 W/m 9.9 C 14.0 C 20.7 km/h (4 Bft)
30.08.2006 13:00 15.1 C 72 % 1020.9 hPa 0.0 l/m 15.4 km/h (3 Bft) W-NW 0.78 h 5.4 UV-I 674 W/m 10.2 C 15.1 C 22.9 km/h (4 Bft)
30.08.2006 14:00 14.4 C 75 % 1021.4 hPa 0.4 l/m 15.5 km/h (3 Bft) W-NW 0.02 h 2.8 UV-I 277 W/m 10.1 C 14.4 C 23.4 km/h (4 Bft)
30.08.2006 15:00 14.1 C 86 % 1021.6 hPa 0.0 l/m 3.2 km/h (1 Bft) N 0.08 h 2.1 UV-I 268 W/m 11.8 C 14.1 C 5.6 km/h (1 Bft)
30.08.2006 16:00 15.6 C 71 % 1021.5 hPa 0.0 l/m 13.0 km/h (3 Bft) W-NW 0.25 h 1.8 UV-I 311 W/m 10.3 C 15.6 C 19.3 km/h (3 Bft)
30.08.2006 17:00 14.0 C 83 % 1022.2 hPa 0.2 l/m 5.0 km/h (1 Bft) W-NW 0.30 h 0.8 UV-I 162 W/m 11.3 C 14.0 C 8.2 km/h (2 Bft)
30.08.2006 18:00 15.2 C 76 % 1022.7 hPa 0.0 l/m 6.9 km/h (2 Bft) W-NW 0.52 h 0.6 UV-I 167 W/m 10.9 C 15.2 C 10.9 km/h (2 Bft)
30.08.2006 19:00 14.3 C 77 % 1023.1 hPa 0.0 l/m 6.9 km/h (2 Bft) W-NW 0.15 h 0.0 UV-I 32 W/m 10.3 C 14.3 C 10.4 km/h (2 Bft)
30.08.2006 20:00 13.2 C 84 % 1023.9 hPa 0.0 l/m 1.2 km/h (1 Bft) W-NW 0.00 h 0.0 UV-I 0 W/m 10.6 C 13.2 C 2.4 km/h (1 Bft)
30.08.2006 21:00 12.4 C 90 % 1024.6 hPa 0.0 l/m 3.9 km/h (1 Bft) O-SO 0.00 h 0.0 UV-I 0 W/m 10.9 C 12.4 C 5.3 km/h (1 Bft)
30.08.2006 22:00 12.0 C 92 % 1025.3 hPa 0.4 l/m 3.5 km/h (1 Bft) N 0.00 h 0.0 UV-I 0 W/m 10.8 C 12.0 C 5.8 km/h (1 Bft)
30.08.2006 23:00 10.8 C 96 % 1025.6 hPa 0.2 l/m 1.6 km/h (1 Bft) SO 0.00 h 0.0 UV-I 0 W/m 10.2 C 10.8 C 2.8 km/h (1 Bft)
31.08.2006 00:00 10.6 C 98 % 1025.9 hPa 0.0 l/m 0.5 km/h (0 Bft) SO 0.00 h 0.0 UV-I 0 W/m 10.2 C 10.6 C 1.5 km/h (1 Bft)
31.08.2006 01:00 9.7 C 99 % 1026.0 hPa 0.0 l/m 1.7 km/h (1 Bft) O-SO 0.00 h 0.0 UV-I 0 W/m 9.5 C 9.7 C 2.6 km/h (1 Bft)
31.08.2006 02:00 9.3 C 99 % 1026.2 hPa 0.0 l/m 1.2 km/h (1 Bft) O-SO 0.00 h 0.0 UV-I 0 W/m 9.2 C 9.3 C 1.9 km/h (1 Bft)
31.08.2006 03:00 9.0 C 100 % 1026.2 hPa 0.0 l/m 0.9 km/h (0 Bft) O-SO 0.00 h 0.0 UV-I 0 W/m 9.0 C 9.0 C 1.9 km/h (1 Bft)
31.08.2006 04:00 9.5 C 100 % 1026.3 hPa 0.0 l/m 0.8 km/h (0 Bft) SO 0.00 h 0.0 UV-I 0 W/m 9.5 C 9.5 C 1.9 km/h (1 Bft)
31.08.2006 05:00 9.6 C 100 % 1026.3 hPa 0.0 l/m 0.3 km/h (0 Bft) SO 0.00 h 0.0 UV-I 0 W/m 9.5 C 9.6 C 0.8 km/h (0 Bft)
31.08.2006 06:00 9.5 C 99 % 1026.4 hPa 0.0 l/m 0.8 km/h (0 Bft) O-SO 0.00 h 0.0 UV-I 7 W/m 9.3 C 9.5 C 1.7 km/h (1 Bft)
31.08.2006 07:00 9.6 C 99 % 1027.0 hPa 0.0 l/m 0.2 km/h (0 Bft) O-SO 0.00 h 0.0 UV-I 25 W/m 9.4 C 9.6 C 0.8 km/h (0 Bft)
31.08.2006 08:00 9.7 C 99 % 1027.5 hPa 0.0 l/m 0.7 km/h (0 Bft) O-SO 0.00 h 0.6 UV-I 84 W/m 9.6 C 9.7 C 2.0 km/h (1 Bft)
31.08.2006 09:00 10.8 C 97 % 1027.6 hPa 0.0 l/m 0.9 km/h (0 Bft) W-NW 0.37 h 1.2 UV-I 247 W/m 10.3 C 10.8 C 2.3 km/h (1 Bft)
31.08.2006 10:00 12.2 C 92 % 1027.4 hPa 0.0 l/m 0.9 km/h (0 Bft) W-NW 0.67 h 2.8 UV-I 420 W/m 10.9 C 12.2 C 2.4 km/h (1 Bft)
31.08.2006 11:00 15.0 C 80 % 1027.1 hPa 0.0 l/m 1.9 km/h (1 Bft) NW 1.00 h 4.7 UV-I 648 W/m 11.5 C 15.0 C 3.6 km/h (1 Bft)
31.08.2006 12:00 16.9 C 67 % 1026.6 hPa 0.0 l/m 2.4 km/h (1 Bft) N 1.00 h 5.9 UV-I 725 W/m 10.6 C 16.9 C 4.4 km/h (1 Bft)
31.08.2006 13:00 18.5 C 50 % 1026.1 hPa 0.0 l/m 3.2 km/h (1 Bft) N 1.00 h 6.3 UV-I 753 W/m 7.9 C 18.5 C 5.2 km/h (1 Bft)
31.08.2006 14:00 19.4 C 51 % 1025.9 hPa 0.0 l/m 3.5 km/h (1 Bft) W 1.00 h 5.8 UV-I 718 W/m 9.0 C 19.4 C 5.8 km/h (2 Bft)
31.08.2006 15:00 19.7 C 50 % 1025.4 hPa 0.0 l/m 2.3 km/h (1 Bft) SO 0.95 h 4.5 UV-I 604 W/m 8.8 C 19.7 C 4.5 km/h (1 Bft)
31.08.2006 16:00 19.8 C 45 % 1025.0 hPa 0.0 l/m 3.8 km/h (1 Bft) O-SO 1.00 h 3.2 UV-I 518 W/m 7.4 C 19.8 C 6.1 km/h (2 Bft)
31.08.2006 17:00 19.9 C 45 % 1024.6 hPa 0.0 l/m 2.5 km/h (1 Bft) O-SO 1.00 h 1.8 UV-I 368 W/m 7.7 C 19.9 C 4.6 km/h (1 Bft)
31.08.2006 18:00 19.8 C 47 % 1024.6 hPa 0.0 l/m 1.8 km/h (1 Bft) W-NW 1.00 h 0.8 UV-I 204 W/m 8.0 C 19.8 C 3.5 km/h (1 Bft)
31.08.2006 19:00 18.2 C 65 % 1024.6 hPa 0.0 l/m 0.6 km/h (0 Bft) W-NW 0.48 h 0.5 UV-I 57 W/m 11.4 C 18.2 C 1.7 km/h (1 Bft)
31.08.2006 20:00 14.5 C 79 % 1024.8 hPa 0.0 l/m 3.8 km/h (1 Bft) O-SO 0.00 h 0.0 UV-I 6 W/m 10.9 C 14.5 C 5.0 km/h (1 Bft)
31.08.2006 21:00 12.5 C 86 % 1025.2 hPa 0.0 l/m 1.9 km/h (1 Bft) O-SO 0.00 h 0.0 UV-I 0 W/m 10.3 C 12.5 C 3.0 km/h (1 Bft)
31.08.2006 22:00 11.3 C 91 % 1025.0 hPa 0.0 l/m 1.2 km/h (1 Bft) SO 0.00 h 0.0 UV-I 0 W/m 9.8 C 11.3 C 1.7 km/h (1 Bft)
31.08.2006 23:00 10.5 C 93 % 1024.8 hPa 0.0 l/m 1.9 km/h (1 Bft) O-SO 0.00 h 0.0 UV-I 0 W/m 9.3 C 10.5 C 3.0 km/h (1 Bft)
01.09.2006 00:00 9.7 C 95 % 1024.6 hPa 0.0 l/m 2.5 km/h (1 Bft) O 0.00 h 0.0 UV-I 0 W/m 8.9 C 9.7 C 3.6 km/h (1 Bft)
01.09.2006 01:00 9.3 C 96 % 1024.3 hPa 0.0 l/m 0.9 km/h (0 Bft) O 0.00 h 0.0 UV-I 0 W/m 8.7 C 9.3 C 1.5 km/h (1 Bft)
01.09.2006 02:00 8.8 C 97 % 1023.9 hPa 0.0 l/m 1.5 km/h (1 Bft) O 0.00 h 0.0 UV-I 0 W/m 8.4 C 8.8 C 2.6 km/h (1 Bft)
01.09.2006 03:00 8.4 C 98 % 1023.4 hPa 0.0 l/m 1.1 km/h (1 Bft) O-SO 0.00 h 0.0 UV-I 0 W/m 8.1 C 8.4 C 2.0 km/h (1 Bft)
01.09.2006 04:00 8.2 C 98 % 1023.4 hPa 0.0 l/m 1.1 km/h (1 Bft) O-SO 0.00 h 0.0 UV-I 0 W/m 7.9 C 8.2 C 1.9 km/h (1 Bft)
01.09.2006 05:00 7.9 C 98 % 1023.1 hPa 0.0 l/m 0.4 km/h (0 Bft) O-SO 0.00 h 0.0 UV-I 0 W/m 7.7 C 7.9 C 1.0 km/h (0 Bft)
01.09.2006 06:00 7.6 C 99 % 1022.9 hPa 0.0 l/m 0.4 km/h (0 Bft) O-SO 0.00 h 0.0 UV-I 6 W/m 7.4 C 7.6 C 0.7 km/h (0 Bft)
01.09.2006 07:00 7.7 C 100 % 1023.1 hPa 0.0 l/m 0.7 km/h (0 Bft) O-SO 0.00 h 0.0 UV-I 27 W/m 7.7 C 7.7 C 0.9 km/h (0 Bft)
01.09.2006 08:00 9.1 C 98 % 1022.8 hPa 0.0 l/m 0.6 km/h (0 Bft) W 0.40 h 0.7 UV-I 163 W/m 8.9 C 9.1 C 1.5 km/h (1 Bft)
01.09.2006 09:00 10.7 C 94 % 1022.8 hPa 0.0 l/m 0.5 km/h (0 Bft) SW 0.63 h 1.7 UV-I 313 W/m 9.8 C 10.7 C 1.4 km/h (1 Bft)
01.09.2006 10:00 14.2 C 82 % 1022.4 hPa 0.0 l/m 1.3 km/h (1 Bft) W-SW 1.00 h 3.1 UV-I 512 W/m 11.0 C 14.2 C 2.7 km/h (1 Bft)
01.09.2006 11:00 16.6 C 70 % 1021.9 hPa 0.0 l/m 2.0 km/h (1 Bft) W-NW 1.00 h 4.7 UV-I 634 W/m 11.1 C 16.6 C 3.7 km/h (1 Bft)
01.09.2006 12:00 18.7 C 64 % 1021.2 hPa 0.0 l/m 3.2 km/h (1 Bft) O-SO 1.00 h 6.0 UV-I 706 W/m 11.7 C 18.7 C 5.6 km/h (1 Bft)
01.09.2006 13:00 20.5 C 59 % 1020.4 hPa 0.0 l/m 3.1 km/h (1 Bft) O-SO 1.00 h 6.2 UV-I 728 W/m 12.1 C 20.5 C 5.8 km/h (2 Bft)
01.09.2006 14:00 21.7 C 59 % 1019.7 hPa 0.0 l/m 2.6 km/h (1 Bft) SO 1.00 h 5.6 UV-I 695 W/m 13.3 C 21.7 C 5.5 km/h (1 Bft)
01.09.2006 15:00 23.2 C 52 % 1019.0 hPa 0.0 l/m 2.8 km/h (1 Bft) W-SW 1.00 h 4.4 UV-I 623 W/m 12.7 C 23.2 C 5.2 km/h (1 Bft)
01.09.2006 16:00 23.7 C 51 % 1018.4 hPa 0.0 l/m 2.8 km/h (1 Bft) W-NW 1.00 h 2.9 UV-I 504 W/m 13.1 C 23.7 C 5.0 km/h (1 Bft)
01.09.2006 17:00 24.0 C 51 % 1017.8 hPa 0.0 l/m 2.3 km/h (1 Bft) O-SO 1.00 h 1.5 UV-I 355 W/m 13.4 C 24.0 C 4.3 km/h (1 Bft)
01.09.2006 18:00 23.4 C 52 % 1017.5 hPa 0.0 l/m 1.3 km/h (1 Bft) S-SO 0.98 h 0.7 UV-I 194 W/m 13.0 C 23.4 C 3.3 km/h (1 Bft)
01.09.2006 19:00 21.5 C 65 % 1017.3 hPa 0.0 l/m 2.4 km/h (1 Bft) O-SO 0.10 h 0.0 UV-I 44 W/m 14.6 C 21.5 C 3.4 km/h (1 Bft)
01.09.2006 20:00 17.8 C 80 % 1017.7 hPa 0.0 l/m 2.9 km/h (1 Bft) O-SO 0.00 h 0.0 UV-I 5 W/m 14.3 C 17.8 C 4.0 km/h (1 Bft)
01.09.2006 21:00 15.5 C 87 % 1018.2 hPa 0.0 l/m 2.4 km/h (1 Bft) O-SO 0.00 h 0.0 UV-I 0 W/m 13.5 C 15.5 C 3.7 km/h (1 Bft)
01.09.2006 22:00 14.3 C 91 % 1018.1 hPa 0.0 l/m 0.9 km/h (0 Bft) O-SO 0.00 h 0.0 UV-I 0 W/m 12.9 C 14.3 C 1.6 km/h (1 Bft)
01.09.2006 23:00 13.7 C 94 % 1018.0 hPa 0.0 l/m 1.2 km/h (1 Bft) O-SO 0.00 h 0.0 UV-I 0 W/m 12.7 C 13.7 C 2.1 km/h (1 Bft)
02.09.2006 00:00 13.1 C 96 % 1017.7 hPa 0.0 l/m 0.7 km/h (0 Bft) O-SO 0.00 h 0.0 UV-I 0 W/m 12.4 C 13.1 C 1.3 km/h (1 Bft)
02.09.2006 01:00 12.8 C 96 % 1017.6 hPa 0.0 l/m 0.6 km/h (0 Bft) O-SO 0.00 h 0.0 UV-I 0 W/m 12.2 C 12.8 C 1.1 km/h (1 Bft)
02.09.2006 02:00 12.2 C 98 % 1017.5 hPa 0.0 l/m 1.0 km/h (0 Bft) O-SO 0.00 h 0.0 UV-I 0 W/m 11.8 C 12.2 C 1.9 km/h (1 Bft)
02.09.2006 03:00 11.7 C 99 % 1017.3 hPa 0.0 l/m 0.2 km/h (0 Bft) O-SO 0.00 h 0.0 UV-I 0 W/m 11.5 C 11.7 C 0.7 km/h (0 Bft)
02.09.2006 04:00 11.7 C 99 % 1017.1 hPa 0.0 l/m 0.3 km/h (0 Bft) O-SO 0.00 h 0.0 UV-I 0 W/m 11.6 C 11.7 C 0.7 km/h (0 Bft)
02.09.2006 05:00 11.7 C 99 % 1017.0 hPa 0.0 l/m 0.6 km/h (0 Bft) O-SO 0.00 h 0.0 UV-I 0 W/m 11.5 C 11.7 C 1.2 km/h (1 Bft)
02.09.2006 06:00 11.5 C 99 % 1016.9 hPa 0.0 l/m 0.3 km/h (0 Bft) O-SO 0.00 h 0.0 UV-I 7 W/m 11.4 C 11.5 C 0.7 km/h (0 Bft)
02.09.2006 07:00 11.8 C 100 % 1017.1 hPa 0.0 l/m 0.0 km/h (0 Bft) N 0.00 h 0.0 UV-I 49 W/m 11.7 C 11.8 C 0.0 km/h (0 Bft)
02.09.2006 08:00 13.1 C 97 % 1017.3 hPa 0.0 l/m 0.1 km/h (0 Bft) O-SO 0.25 h 0.6 UV-I 130 W/m 12.7 C 13.1 C 0.6 km/h (0 Bft)
02.09.2006 09:00 14.8 C 91 % 1017.4 hPa 0.0 l/m 0.3 km/h (0 Bft) S-SO 0.05 h 1.3 UV-I 191 W/m 13.3 C 14.8 C 1.4 km/h (1 Bft)
02.09.2006 10:00 17.5 C 80 % 1017.2 hPa 0.0 l/m 2.5 km/h (1 Bft) S-SO 0.67 h 2.7 UV-I 416 W/m 14.1 C 17.5 C 5.0 km/h (1 Bft)
02.09.2006 11:00 19.9 C 72 % 1017.0 hPa 0.0 l/m 4.2 km/h (1 Bft) S-SO 0.55 h 3.6 UV-I 456 W/m 14.6 C 19.9 C 7.9 km/h (2 Bft)
02.09.2006 12:00 21.4 C 67 % 1016.6 hPa 0.0 l/m 3.3 km/h (1 Bft) S-SO 0.80 h 4.4 UV-I 530 W/m 15.1 C 21.4 C 6.7 km/h (2 Bft)
02.09.2006 13:00 22.7 C 62 % 1016.0 hPa 0.0 l/m 4.1 km/h (1 Bft) S-SO 0.72 h 4.9 UV-I 602 W/m 15.0 C 22.7 C 8.2 km/h (2 Bft)
02.09.2006 14:00 24.2 C 59 % 1015.7 hPa 0.0 l/m 3.1 km/h (1 Bft) SO 0.97 h 5.0 UV-I 668 W/m 15.7 C 24.2 C 5.8 km/h (1 Bft)
02.09.2006 15:00 24.4 C 59 % 1015.5 hPa 0.0 l/m 5.6 km/h (1 Bft) W 0.37 h 2.7 UV-I 358 W/m 15.8 C 24.4 C 8.8 km/h (2 Bft)
02.09.2006 16:00 23.5 C 63 % 1015.4 hPa 0.0 l/m 4.1 km/h (1 Bft) W 0.02 h 1.6 UV-I 229 W/m 16.1 C 23.5 C 6.3 km/h (2 Bft)
02.09.2006 17:00 23.2 C 66 % 1015.4 hPa 0.0 l/m 2.6 km/h (1 Bft) W 0.02 h 1.0 UV-I 165 W/m 16.5 C 23.2 C 4.7 km/h (1 Bft)
02.09.2006 18:00 21.9 C 70 % 1015.8 hPa 0.0 l/m 1.4 km/h (1 Bft) W-SW 0.00 h 0.5 UV-I 70 W/m 16.1 C 21.9 C 3.1 km/h (1 Bft)
02.09.2006 19:00 21.0 C 71 % 1015.9 hPa 0.0 l/m 0.9 km/h (0 Bft) S-SO 0.00 h 0.0 UV-I 22 W/m 15.6 C 21.0 C 2.8 km/h (1 Bft)
02.09.2006 20:00 19.8 C 78 % 1016.6 hPa 0.0 l/m 1.3 km/h (1 Bft) S-SO 0.00 h 0.0 UV-I 0 W/m 15.8 C 19.8 C 2.3 km/h (1 Bft)
02.09.2006 21:00 18.6 C 84 % 1017.4 hPa 0.0 l/m 1.9 km/h (1 Bft) SO 0.00 h 0.0 UV-I 0 W/m 15.8 C 18.6 C 3.1 km/h (1 Bft)
02.09.2006 22:00 18.6 C 83 % 1017.3 hPa 0.0 l/m 1.4 km/h (1 Bft) W-SW 0.00 h 0.0 UV-I 0 W/m 15.6 C 18.6 C 3.1 km/h (1 Bft)
02.09.2006 23:00 18.9 C 81 % 1017.2 hPa 0.0 l/m 1.8 km/h (1 Bft) W-SW 0.00 h 0.0 UV-I 0 W/m 15.6 C 18.9 C 4.0 km/h (1 Bft)
03.09.2006 00:00 18.5 C 83 % 1017.6 hPa 0.0 l/m 1.2 km/h (1 Bft) S-SO 0.00 h 0.0 UV-I 0 W/m 15.6 C 18.5 C 3.2 km/h (1 Bft)
03.09.2006 01:00 17.8 C 87 % 1017.8 hPa 0.0 l/m 2.4 km/h (1 Bft) S-SO 0.00 h 0.0 UV-I 0 W/m 15.5 C 17.8 C 4.8 km/h (1 Bft)
03.09.2006 02:00 18.1 C 83 % 1017.9 hPa 0.0 l/m 1.4 km/h (1 Bft) W-SW 0.00 h 0.0 UV-I 0 W/m 15.2 C 18.1 C 3.2 km/h (1 Bft)
03.09.2006 03:00 17.9 C 81 % 1018.0 hPa 0.0 l/m 2.4 km/h (1 Bft) W 0.00 h 0.0 UV-I 0 W/m 14.5 C 17.9 C 4.6 km/h (1 Bft)
03.09.2006 04:00 17.5 C 83 % 1018.1 hPa 0.0 l/m 1.3 km/h (1 Bft) S-SO 0.00 h 0.0 UV-I 0 W/m 14.7 C 17.5 C 2.8 km/h (1 Bft)
03.09.2006 05:00 17.1 C 89 % 1018.4 hPa 0.0 l/m 1.3 km/h (1 Bft) S-SO 0.00 h 0.0 UV-I 0 W/m 15.2 C 17.1 C 3.0 km/h (1 Bft)
03.09.2006 06:00 17.1 C 89 % 1018.4 hPa 0.0 l/m 2.2 km/h (1 Bft) S-SO 0.00 h 0.0 UV-I 0 W/m 15.3 C 17.1 C 4.8 km/h (1 Bft)
03.09.2006 07:00 17.2 C 88 % 1018.7 hPa 0.0 l/m 1.4 km/h (1 Bft) S-SO 0.00 h 0.0 UV-I 27 W/m 15.2 C 17.2 C 4.0 km/h (1 Bft)
03.09.2006 08:00 17.6 C 87 % 1019.1 hPa 0.0 l/m 1.4 km/h (1 Bft) SW 0.00 h 0.6 UV-I 71 W/m 15.4 C 17.6 C 4.0 km/h (1 Bft)
03.09.2006 09:00 18.1 C 85 % 1019.4 hPa 0.0 l/m 2.4 km/h (1 Bft) S 0.00 h 0.9 UV-I 112 W/m 15.7 C 18.1 C 5.6 km/h (1 Bft)
03.09.2006 10:00 19.1 C 83 % 1019.8 hPa 0.0 l/m 1.8 km/h (1 Bft) S-SO 0.00 h 1.5 UV-I 161 W/m 16.2 C 19.1 C 4.7 km/h (1 Bft)
03.09.2006 11:00 19.7 C 80 % 1020.2 hPa 0.0 l/m 3.9 km/h (1 Bft) S-SO 0.00 h 2.1 UV-I 186 W/m 16.1 C 19.7 C 6.9 km/h (2 Bft)
03.09.2006 12:00 20.6 C 77 % 1020.5 hPa 0.0 l/m 4.8 km/h (1 Bft) S-SO 0.10 h 4.2 UV-I 335 W/m 16.4 C 20.6 C 9.1 km/h (2 Bft)
03.09.2006 13:00 22.5 C 73 % 1020.2 hPa 0.0 l/m 4.8 km/h (1 Bft) S-SO 0.60 h 5.9 UV-I 588 W/m 17.4 C 22.5 C 9.8 km/h (2 Bft)
03.09.2006 14:00 23.4 C 70 % 1020.1 hPa 0.0 l/m 4.8 km/h (1 Bft) S-SO 0.45 h 4.1 UV-I 442 W/m 17.7 C 23.4 C 9.3 km/h (2 Bft)
03.09.2006 15:00 24.7 C 67 % 1020.0 hPa 0.0 l/m 4.0 km/h (1 Bft) W-NW 0.73 h 4.2 UV-I 550 W/m 18.2 C 24.7 C 7.3 km/h (2 Bft)
03.09.2006 16:00 26.0 C 64 % 1019.6 hPa 0.0 l/m 5.6 km/h (1 Bft) W-NW 0.88 h 2.9 UV-I 459 W/m 18.6 C 26.0 C 8.7 km/h (2 Bft)
03.09.2006 17:00 26.3 C 63 % 1019.8 hPa 0.0 l/m 8.9 km/h (2 Bft) W 0.85 h 1.5 UV-I 336 W/m 18.5 C 26.3 C 14.3 km/h (3 Bft)
03.09.2006 18:00 24.5 C 69 % 1020.3 hPa 0.0 l/m 10.3 km/h (2 Bft) W-NW 0.03 h 0.7 UV-I 71 W/m 18.4 C 24.5 C 16.0 km/h (3 Bft)
03.09.2006 19:00 23.9 C 71 % 1020.7 hPa 0.0 l/m 12.5 km/h (3 Bft) W-NW 0.17 h 0.0 UV-I 38 W/m 18.3 C 23.9 C 18.1 km/h (3 Bft)
03.09.2006 20:00 23.2 C 73 % 1021.1 hPa 0.0 l/m 10.4 km/h (2 Bft) W-NW 0.00 h 0.0 UV-I 0 W/m 18.2 C 23.2 C 15.6 km/h (3 Bft)
03.09.2006 21:00 22.8 C 75 % 1021.5 hPa 0.0 l/m 8.3 km/h (2 Bft) W-NW 0.00 h 0.0 UV-I 0 W/m 18.2 C 22.8 C 11.9 km/h (2 Bft)
03.09.2006 22:00 22.5 C 77 % 1022.1 hPa 0.0 l/m 11.7 km/h (2 Bft) W-NW 0.00 h 0.0 UV-I 0 W/m 18.2 C 22.5 C 17.8 km/h (3 Bft)
03.09.2006 23:00 22.7 C 76 % 1022.6 hPa 0.0 l/m 14.2 km/h (3 Bft) W 0.00 h 0.0 UV-I 0 W/m 18.2 C 22.7 C 20.9 km/h (4 Bft)
Min-Datum _ 01.09.06 31.08.06 28.08.06 - 28.08.06 - - - - 31.08.06 30.08.06 28.08.06
_ Min-Zeit 06:18 13:52 19:45 - 00:01 - - - - 13:52 01:00 00:01
Minimum _ 7.2 C 40 % 1008.6 hPa - 0.0 km/h (0 Bft) - - - - 5.3 C 7.1 C 0.0 km/h (0 Bft)
Max-Datum _ 03.09.06 28.08.06 31.08.06 28.08.06 29.08.06 - 29.08.06 03.09.06 03.09.06 03.09.06 03.09.06 29.08.06
_ Max-Zeit 17:46 19:42 08:45 22:07 13:56 - 11:26 13:44 13:44 15:56 17:46 13:56
Maximum _ 26.6 C 100 % 1027.6 hPa 5.2 l/m 35.2 km/h
W-NW (5 Bft)
- 0.02 h 7.7 UV-I 1039 W/m 19.8 C 26.6 C 48.7 km/h
W-NW (6 Bft)
Durchschnitt _ 14.9 C 85 % 1018.3 hPa #21.6 l/m 3.9 km/h (1 Bft) W-NW #31:29 h 2.4 UV-I 245 W/m 12.1 C 14.9 C 6.6 km/h (2 Bft)
© Kaiko 2006